createdAt,value
2024-03-28T00:01:09.146Z,70.48
2024-03-28T00:06:11.810Z,70.71
2024-03-28T00:11:14.406Z,70.74
2024-03-28T00:16:17.003Z,70.66
2024-03-28T00:21:19.684Z,70.67
2024-03-28T00:26:22.208Z,70.47
2024-03-28T00:31:24.920Z,70.86
2024-03-28T00:36:27.546Z,71.04
2024-03-28T00:41:30.150Z,71.13
2024-03-28T00:46:32.782Z,71.34
2024-03-28T00:51:35.324Z,71.67
2024-03-28T00:56:38.036Z,71.74
2024-03-28T01:01:41.104Z,72.04
2024-03-28T01:06:43.737Z,72.24
2024-03-28T01:11:46.318Z,72.29
2024-03-28T01:16:51.403Z,72.34
2024-03-28T01:21:54.068Z,72.45
2024-03-28T01:26:57.696Z,72.43
2024-03-28T01:32:00.325Z,72.68
2024-03-28T01:37:03.077Z,73.05
2024-03-28T01:42:05.662Z,72.67
2024-03-28T01:47:25.861Z,72.76
2024-03-28T01:52:31.850Z,72.97
2024-03-28T01:57:35.111Z,73.17
2024-03-28T02:02:41.355Z,73.23
2024-03-28T02:07:43.962Z,73.43
2024-03-28T02:12:46.778Z,73.62
2024-03-28T02:17:50.953Z,74.02
2024-03-28T02:22:53.558Z,74.09
2024-03-28T02:27:56.222Z,74.12
2024-03-28T02:32:59.117Z,73.80
2024-03-28T02:38:01.786Z,74.03
2024-03-28T02:43:04.677Z,74.19
2024-03-28T02:48:09.145Z,74.16
2024-03-28T02:53:11.885Z,74.19
2024-03-28T02:58:14.442Z,74.21
2024-03-28T03:03:17.033Z,74.35
2024-03-28T03:08:19.839Z,74.43
2024-03-28T03:13:22.600Z,74.39
2024-03-28T03:18:27.977Z,74.70
2024-03-28T03:23:38.796Z,75.10
2024-03-28T03:29:00.182Z,75.08
2024-03-28T03:34:21.562Z,75.25
2024-03-28T03:39:24.920Z,75.34
2024-03-28T03:44:28.308Z,75.06
2024-03-28T03:49:31.046Z,75.09
2024-03-28T03:54:33.750Z,75.28
2024-03-28T03:59:38.338Z,75.48
2024-03-28T04:04:41.313Z,75.55
2024-03-28T04:09:44.010Z,75.76
2024-03-28T04:14:47.259Z,75.48
2024-03-28T04:19:50.103Z,74.97
2024-03-28T04:24:54.707Z,74.55
2024-03-28T04:30:01.865Z,74.08
2024-03-28T04:35:05.884Z,73.62
2024-03-28T04:40:10.282Z,73.25
2024-03-28T04:45:14.096Z,73.09
2024-03-28T04:50:18.174Z,72.87
2024-03-28T04:55:21.624Z,72.58
2024-03-28T05:00:25.695Z,72.54
2024-03-28T05:05:28.648Z,72.22
2024-03-28T05:10:31.548Z,71.97
2024-03-28T05:15:35.631Z,71.82
2024-03-28T05:20:38.276Z,71.93
2024-03-28T05:25:41.019Z,71.84
2024-03-28T05:30:43.848Z,71.77
2024-03-28T05:35:47.039Z,71.66
2024-03-28T05:40:49.704Z,71.66
2024-03-28T05:45:52.351Z,71.90
2024-03-28T05:50:55.490Z,72.84
2024-03-28T05:55:58.192Z,74.01
2024-03-28T06:01:00.974Z,75.28
2024-03-28T06:06:04.320Z,76.22
2024-03-28T06:11:07.418Z,76.50
2024-03-28T06:16:11.431Z,77.15
2024-03-28T06:21:14.228Z,77.88
2024-03-28T06:26:16.904Z,78.43
2024-03-28T06:31:22.617Z,78.54
2024-03-28T06:36:25.265Z,78.28
2024-03-28T06:41:28.731Z,77.87
2024-03-28T06:46:31.446Z,77.33
2024-03-28T06:51:34.181Z,76.65
2024-03-28T06:56:36.870Z,75.78
2024-03-28T07:01:39.615Z,75.09
2024-03-28T07:06:42.474Z,73.94
2024-03-28T07:11:47.041Z,73.45
2024-03-28T07:16:50.146Z,72.79
2024-03-28T07:21:53.149Z,72.17
2024-03-28T07:26:56.123Z,71.51
2024-03-28T07:31:58.746Z,70.30
2024-03-28T07:37:01.755Z,69.70
2024-03-28T07:42:04.961Z,69.51
2024-03-28T07:47:07.572Z,69.41
2024-03-28T07:52:10.270Z,69.85
2024-03-28T07:57:13.158Z,70.52
2024-03-28T08:02:16.141Z,71.03
2024-03-28T08:07:18.893Z,71.41
2024-03-28T08:12:21.608Z,71.58
2024-03-28T08:17:24.215Z,71.79
2024-03-28T08:22:27.035Z,72.58
2024-03-28T08:27:31.168Z,73.12
2024-03-28T08:32:35.666Z,73.41
2024-03-28T08:37:40.374Z,73.60
2024-03-28T08:42:44.267Z,74.00
2024-03-28T08:47:47.188Z,74.12
2024-03-28T08:52:50.714Z,74.25
2024-03-28T08:57:54.183Z,73.65
2024-03-28T09:02:57.067Z,73.46
2024-03-28T09:07:59.852Z,73.51
2024-03-28T09:13:03.087Z,72.83
2024-03-28T09:18:06.890Z,71.85
2024-03-28T09:23:11.352Z,70.38
2024-03-28T09:28:14.808Z,69.48
2024-03-28T09:33:17.597Z,68.02
2024-03-28T09:38:20.315Z,67.80
2024-03-28T09:43:23.405Z,66.72
2024-03-28T09:48:26.863Z,64.84
2024-03-28T09:53:30.934Z,63.87
2024-03-28T09:58:36.354Z,63.64
2024-03-28T10:03:41.879Z,62.40
2024-03-28T10:08:45.597Z,59.82
2024-03-28T10:13:48.495Z,58.62
2024-03-28T10:18:55.384Z,58.88
2024-03-28T10:23:58.238Z,58.21
2024-03-28T10:29:01.624Z,58.43
2024-03-28T10:34:05.082Z,57.35
2024-03-28T10:39:13.012Z,56.57
2024-03-28T10:44:16.706Z,56.17
2024-03-28T10:49:27.138Z,55.76
2024-03-28T10:54:47.286Z,55.79
2024-03-28T10:59:51.554Z,55.27
2024-03-28T11:04:55.821Z,54.64
2024-03-28T11:10:00.593Z,54.09
2024-03-28T11:15:05.546Z,53.71
2024-03-28T11:20:14.970Z,53.29
2024-03-28T11:25:27.637Z,53.36
2024-03-28T11:30:30.415Z,54.19
2024-03-28T11:35:33.710Z,54.50
2024-03-28T11:40:38.207Z,54.24
2024-03-28T11:45:59.368Z,54.39
2024-03-28T11:51:06.822Z,53.90
2024-03-28T11:56:14.479Z,53.08
2024-03-28T12:01:20.030Z,52.18
2024-03-28T12:06:25.118Z,53.14
2024-03-28T12:11:28.981Z,54.17
2024-03-28T12:16:31.853Z,54.53
2024-03-28T12:21:35.411Z,54.93
2024-03-28T12:26:38.147Z,55.75
2024-03-28T12:31:40.893Z,56.28
2024-03-28T12:36:43.561Z,56.18
2024-03-28T12:41:54.361Z,57.47
2024-03-28T12:46:57.270Z,59.27
2024-03-28T12:51:59.874Z,60.85
2024-03-28T12:57:04.596Z,62.18
2024-03-28T13:02:08.068Z,63.63
2024-03-28T13:07:13.323Z,64.87
2024-03-28T13:12:17.061Z,66.18
2024-03-28T13:17:19.753Z,66.90
2024-03-28T13:22:22.465Z,67.95
2024-03-28T13:27:43.443Z,68.85
2024-03-28T13:32:50.832Z,69.37
2024-03-28T13:37:54.032Z,69.78
2024-03-28T13:42:56.769Z,69.86
2024-03-28T13:48:00.219Z,69.65
2024-03-28T13:53:02.874Z,69.62
2024-03-28T13:58:05.659Z,70.04
2024-03-28T14:03:08.431Z,70.19
2024-03-28T14:08:12.138Z,69.73
2024-03-28T14:13:14.823Z,69.27
2024-03-28T14:18:18.763Z,69.23
2024-03-28T14:23:21.397Z,69.33
2024-03-28T14:28:24.901Z,69.19
2024-03-28T14:33:27.609Z,69.02
2024-03-28T14:38:30.289Z,68.65
2024-03-28T14:43:39.030Z,68.41
2024-03-28T14:48:42.357Z,68.82
2024-03-28T14:53:45.014Z,68.83
2024-03-28T14:58:47.604Z,69.09
2024-03-28T15:03:50.240Z,69.51
2024-03-28T15:08:53.002Z,70.01
2024-03-28T15:13:55.672Z,70.66
2024-03-28T15:18:59.472Z,70.97
2024-03-28T15:24:03.464Z,71.70
2024-03-28T15:29:09.296Z,72.38
2024-03-28T15:34:12.175Z,74.68
2024-03-28T15:39:15.097Z,78.41
2024-03-28T15:44:17.697Z,80.34
2024-03-28T15:49:20.330Z,82.15
2024-03-28T15:54:23.070Z,84.50
2024-03-28T15:59:25.805Z,86.16
2024-03-28T16:04:35.288Z,88.21
2024-03-28T16:09:38.062Z,89.32
2024-03-28T16:14:41.103Z,90.06
2024-03-28T16:19:43.957Z,91.08
2024-03-28T16:24:46.838Z,91.35
2024-03-28T16:29:50.234Z,92.13
2024-03-28T16:34:52.949Z,96.13
2024-03-28T16:39:56.424Z,96.57
2024-03-28T16:44:59.234Z,94.29
2024-03-28T16:50:02.345Z,93.15
2024-03-28T16:55:06.324Z,92.68
2024-03-28T17:00:09.591Z,92.81
2024-03-28T17:05:13.956Z,93.03
2024-03-28T17:10:18.470Z,93.92
2024-03-28T17:15:21.142Z,94.26
2024-03-28T17:20:23.909Z,94.79
2024-03-28T17:25:28.930Z,94.97
2024-03-28T17:30:31.682Z,95.05
2024-03-28T17:35:34.421Z,95.69
2024-03-28T17:40:37.585Z,95.58
2024-03-28T17:45:40.764Z,95.34
2024-03-28T17:50:47.024Z,95.96
2024-03-28T17:55:49.895Z,95.64
2024-03-28T18:00:52.629Z,95.86
2024-03-28T18:05:59.930Z,95.84
2024-03-28T18:11:02.610Z,95.58
2024-03-28T18:16:05.855Z,95.94
2024-03-28T18:21:08.582Z,95.34
2024-03-28T18:26:11.310Z,94.91
2024-03-28T18:31:14.018Z,94.96
2024-03-28T18:36:17.572Z,94.81
2024-03-28T18:41:20.329Z,94.63
2024-03-28T18:46:23.049Z,94.67
2024-03-28T18:51:26.272Z,94.51
2024-03-28T18:56:29.855Z,94.55
2024-03-28T19:01:35.384Z,94.35
2024-03-28T19:06:38.331Z,94.31
2024-03-28T19:11:40.978Z,94.31
2024-03-28T19:16:43.662Z,94.63
2024-03-28T19:21:46.414Z,94.69
2024-03-28T19:26:49.318Z,94.68
2024-03-28T19:31:51.997Z,94.73
2024-03-28T19:36:54.796Z,94.42
2024-03-28T19:41:57.584Z,94.07
2024-03-28T19:47:00.189Z,94.16
2024-03-28T19:52:02.856Z,94.63
2024-03-28T19:57:05.698Z,94.69
2024-03-28T20:02:08.405Z,94.77
2024-03-28T20:07:14.304Z,94.99
2024-03-28T20:12:17.399Z,95.20
2024-03-28T20:17:20.859Z,95.70
2024-03-28T20:22:24.579Z,95.90
2024-03-28T20:27:27.226Z,96.03
2024-03-28T20:32:32.485Z,96.46
2024-03-28T20:37:35.790Z,96.95
2024-03-28T20:42:38.407Z,97.24
2024-03-28T20:47:41.103Z,97.69
2024-03-28T20:52:43.874Z,97.56
2024-03-28T20:57:47.488Z,97.84
2024-03-28T21:02:51.210Z,98.08
2024-03-28T21:08:12.571Z,98.48
2024-03-28T21:13:19.671Z,98.75
2024-03-28T21:18:22.859Z,98.68
2024-03-28T21:23:25.515Z,98.75
2024-03-28T21:28:28.674Z,98.93
2024-03-28T21:33:31.269Z,99.13
2024-03-28T21:38:34.771Z,99.30
2024-03-28T21:43:40.986Z,99.33
2024-03-28T21:48:43.603Z,99.56
2024-03-28T21:53:46.476Z,99.73
2024-03-28T21:58:51.102Z,100.00
2024-03-28T22:03:53.736Z,100.00
2024-03-28T22:08:56.614Z,100.00
2024-03-28T22:13:59.252Z,100.00
2024-03-28T22:19:01.932Z,100.00
2024-03-28T22:24:05.312Z,100.00
2024-03-28T22:29:08.016Z,100.00
2024-03-28T22:34:10.659Z,100.00
2024-03-28T22:39:14.055Z,100.00
2024-03-28T22:44:16.600Z,100.00
2024-03-28T22:49:19.167Z,99.69
2024-03-28T22:54:21.819Z,98.26
2024-03-28T22:59:24.444Z,96.92
2024-03-28T23:04:27.023Z,95.83
2024-03-28T23:09:29.626Z,94.80
2024-03-28T23:14:32.228Z,93.88
2024-03-28T23:19:34.916Z,93.61
2024-03-28T23:24:37.566Z,93.33
2024-03-28T23:29:40.791Z,93.46
2024-03-28T23:34:43.370Z,93.31
2024-03-28T23:39:45.991Z,93.30
2024-03-28T23:44:48.721Z,93.43
2024-03-28T23:49:52.141Z,93.53
2024-03-28T23:54:54.728Z,93.79
2024-03-28T23:59:58.663Z,94.00
